Hiyodori — JD2366 — position and weather

sailwx.info

Track history (hours):
 
Tides and Currents Weather Stations Pressure Air Temp Water Temp Dewpoint Dewpoint Depression Visibility Wind Speed Wind Dir Waves Ship Positions

Hiyodori

Last reported at 2016-May-26 04:26 UTC. Time now 2016-May-28 00:08 UTC.
Position N 35°00' E 139°29'.

Length 88 m; draft 3.6 m.

Type: Cargo ship. MMSI: 431000132.

Date/timePositionNaut miles runAvg speedWind from/ knotsBaromVisibWave heightAir tempDewpointWater temp
2016-May-26 04:26N 35°00' E 139°29'1010.9
2016-May-26 03:32N 35°06' E 139°39'1110.9
2016-May-26 02:33N 35°14' E 139°46'1111.1
2016-May-26 01:33N 35°25' E 139°44'10 9.7
2016-May-26 00:33N 35°34' E 139°49'3 2.6
2016-May-25 23:32N 35°36' E 139°46'3 2.8
2016-May-25 22:33N 35°34' E 139°49'9 8.7
2016-May-25 21:33N 35°26' E 139°47'3 2.5
2016-May-25 20:31N 35°24' E 139°44'0 0.0
2016-May-25 19:31N 35°24' E 139°44'0 0.0
2016-May-25 18:31N 35°24' E 139°44'0 0.0
2016-May-25 17:31N 35°24' E 139°44'0 0.0
2016-May-25 16:31N 35°24' E 139°44'0 0.0
2016-May-25 15:31N 35°24' E 139°44'0 0.0
2016-May-25 14:31N 35°24' E 139°44'0 0.0
2016-May-25 13:31N 35°24' E 139°44'0 0.0
2016-May-25 12:31N 35°24' E 139°44'0 0.0
2016-May-25 11:31N 35°24' E 139°44'0 0.0
2016-May-25 10:31N 35°24' E 139°44'0 0.0
2016-May-25 09:31N 35°24' E 139°44'0 0.0
2016-May-25 08:31N 35°24' E 139°44'0 0.0
2016-May-25 07:31N 35°24' E 139°44'0 0.0
2016-May-25 06:31N 35°24' E 139°44'0 0.0
2016-May-25 05:31N 35°24' E 139°44'0 0.0
2016-May-25 04:31N 35°24' E 139°44'0 0.0
2016-May-25 03:31N 35°24' E 139°44'0 0.0
2016-May-25 02:31N 35°24' E 139°44'0 0.0
2016-May-25 01:31N 35°24' E 139°44'4 3.8
2016-May-25 00:34N 35°26' E 139°41'0 0.0
2016-May-24 23:31N 35°26' E 139°41'0 0.2
2016-May-24 22:33N 35°26' E 139°41'0 0.0
2016-May-24 21:33N 35°26' E 139°41'0 0.0
2016-May-24 20:33N 35°26' E 139°41'0 0.0
2016-May-24 19:33N 35°26' E 139°41'0 0.0
2016-May-24 18:33N 35°26' E 139°41'0 0.0
2016-May-24 17:33N 35°26' E 139°41'0 0.0
2016-May-24 16:33N 35°26' E 139°41'1 0.6
2016-May-24 15:33N 35°27' E 139°41'4 3.9
2016-May-24 14:32N 35°24' E 139°45'0 0.0
2016-May-24 13:29N 35°24' E 139°44'0 0.1
2016-May-24 12:32N 35°24' E 139°45'0 0.0
2016-May-24 11:32N 35°24' E 139°45'0 0.0
2016-May-24 10:32N 35°24' E 139°45'0 0.0
2016-May-24 09:32N 35°24' E 139°45'0 0.0
2016-May-24 08:32N 35°24' E 139°45'9 9.5
2016-May-24 07:33N 35°15' E 139°47'1313.1
2016-May-24 06:33N 35°02' E 139°44'43 8.5
2016-May-24 01:33N 35°13' E 140°35'1010.1
2016-May-24 00:32N 35°20' E 140°44'1111.3
2016-May-23 23:33N 35°30' E 140°49'1111.3
2016-May-23 22:33N 35°40' E 140°55'1111.2
2016-May-23 21:33N 35°51' E 140°54'1212.1
2016-May-23 20:33N 36°03' E 140°51'1312.3
2016-May-23 19:31N 36°16' E 140°48'1611.6
2016-May-23 18:11N 36°31' E 140°51'711.7
2016-May-23 17:33N 36°38' E 140°55'2711.9
2016-May-23 15:18N 37°03' E 141°07'19 0.8
2016-May-22 16:04N 36°45' E 141°01'611.8
2016-May-22 15:33N 36°39' E 140°60'1211.8
2016-May-22 14:33N 36°27' E 140°58'1211.8
2016-May-22 13:33N 36°15' E 140°57'1211.7
2016-May-22 12:34N 36°04' E 140°57'1111.3
2016-May-22 11:34N 35°53' E 140°56'1111.3
2016-May-22 10:33N 35°41' E 140°55'1110.4
2016-May-22 09:32N 35°32' E 140°48'1010.6
2016-May-22 08:33N 35°25' E 140°39'1111.0
2016-May-22 07:34N 35°16' E 140°32'1311.2
2016-May-22 06:22N 35°06' E 140°21'810.4
2016-May-22 05:33N 35°01' E 140°12'1110.8
2016-May-22 04:33N 34°55' E 140°01'1110.6
2016-May-22 03:33N 34°52' E 139°49'1211.7
2016-May-22 02:34N 35°02' E 139°44'1413.5
2016-May-22 01:33N 35°16' E 139°46'9 9.2
2016-May-22 00:33N 35°24' E 139°41'0 0.0
2016-May-21 23:33N 35°24' E 139°41'3 2.9
2016-May-21 22:33N 35°23' E 139°44'0 0.0
2016-May-21 21:33N 35°23' E 139°44'0 0.0
2016-May-21 20:33N 35°23' E 139°44'0 0.0
2016-May-21 19:33N 35°23' E 139°44'0 0.0
2016-May-21 18:33N 35°23' E 139°44'0 0.0
2016-May-21 17:33N 35°23' E 139°44'0 0.0
2016-May-21 16:33N 35°23' E 139°44'0 0.0
2016-May-21 15:33N 35°23' E 139°44'0 0.0
2016-May-21 14:33N 35°23' E 139°44'0 0.0
2016-May-21 13:33N 35°23' E 139°44'0 0.0
2016-May-21 12:33N 35°23' E 139°44'0 0.0
2016-May-21 11:33N 35°23' E 139°44'0 0.0
2016-May-21 10:33N 35°23' E 139°44'0 0.0
2016-May-21 09:33N 35°23' E 139°44'0 0.0
2016-May-21 08:33N 35°23' E 139°44'0 0.1
2016-May-21 07:33N 35°23' E 139°44'3 2.5
2016-May-21 06:33N 35°20' E 139°43'1211.5
2016-May-21 05:33N 35°09' E 139°46'1212.2
2016-May-21 04:33N 34°57' E 139°44'5410.7
2016-May-20 23:33N 35°25' E 140°40'2612.8
2016-May-20 21:33N 35°48' E 140°55'45 1.7
2016-May-19 19:28N 36°32' E 140°60'6011.2
2016-May-19 14:08N 35°33' E 140°47'711.5
2016-May-19 13:32N 35°28' E 140°42'1111.1
2016-May-19 12:32N 35°19' E 140°34'1010.3
2016-May-19 11:33N 35°11' E 140°27'1110.9
2016-May-19 10:33N 35°04' E 140°16'1111.5
2016-May-19 09:33N 34°57' E 140°05'1210.2
2016-May-19 08:25N 34°52' E 139°52'1110.0
2016-May-19 07:21N 34°60' E 139°43'1113.6
2016-May-19 06:33N 35°10' E 139°46'1212.3
2016-May-19 05:33N 35°22' E 139°42'2 1.8
2016-May-19 04:32N 35°24' E 139°41'1 0.9
2016-May-19 03:33N 35°23' E 139°41'2 2.0
2016-May-19 02:28N 35°22' E 139°44'0 0.0
2016-May-19 01:31N 35°22' E 139°44'0 0.0
2016-May-19 00:31N 35°22' E 139°44'6 5.7
2016-May-18 23:34N 35°27' E 139°41'2 1.9
2016-May-18 22:32N 35°29' E 139°39'0 0.0
2016-May-18 21:32N 35°29' E 139°39'0 0.0
2016-May-18 20:32N 35°29' E 139°39'0 0.0
2016-May-18 19:32N 35°29' E 139°39'0 0.0
2016-May-18 18:32N 35°29' E 139°39'0 0.0
2016-May-18 17:32N 35°29' E 139°39'0 0.0
2016-May-18 16:32N 35°29' E 139°39'0 0.0
2016-May-18 15:32N 35°29' E 139°39'0 0.0
2016-May-18 14:29N 35°29' E 139°39'0 0.0
2016-May-18 13:32N 35°29' E 139°39'0 0.0
2016-May-18 12:32N 35°29' E 139°39'0 0.0
2016-May-18 11:32N 35°29' E 139°39'0 0.0
2016-May-18 10:32N 35°29' E 139°39'0 0.0
2016-May-18 09:32N 35°29' E 139°39'0 0.0
2016-May-18 08:32N 35°29' E 139°39'0 0.0
2016-May-18 07:32N 35°29' E 139°39'0 0.0
2016-May-18 06:32N 35°29' E 139°39'0 0.0
2016-May-18 05:32N 35°29' E 139°39'0 0.0
2016-May-18 04:32N 35°29' E 139°39'0 0.0
2016-May-18 03:32N 35°29' E 139°39'0 0.0
2016-May-18 02:32N 35°29' E 139°39'0 0.0
2016-May-18 01:32N 35°29' E 139°39'0 0.0
2016-May-18 00:32N 35°29' E 139°39'0 0.0
2016-May-17 23:32N 35°29' E 139°39'7 6.8
2016-May-17 22:34N 35°24' E 139°45'0 0.1
2016-May-17 21:32N 35°24' E 139°45'0 0.0
2016-May-17 20:32N 35°24' E 139°45'0 0.0
2016-May-17 19:32N 35°24' E 139°45'0 0.0
2016-May-17 18:29N 35°24' E 139°45'0 0.0
2016-May-17 17:32N 35°24' E 139°45'0 0.0
2016-May-17 16:32N 35°24' E 139°45'0 0.0
2016-May-17 15:32N 35°24' E 139°45'0 0.0
2016-May-17 14:32N 35°24' E 139°45'0 0.0
2016-May-17 13:33N 35°24' E 139°45'0 0.0
2016-May-17 12:33N 35°24' E 139°45'1 0.9
2016-May-17 11:33N 35°24' E 139°44'2 2.3
2016-May-17 10:31N 35°24' E 139°41'1 0.6
2016-May-17 09:34N 35°24' E 139°40'6 6.2
2016-May-17 08:34N 35°18' E 139°44'1110.6
2016-May-17 07:33N 35°08' E 139°46'17 8.2
2016-May-17 05:28N 34°53' E 139°57'4210.2
2016-May-17 01:22N 35°21' E 140°36'810.1
2016-May-17 00:33N 35°27' E 140°42'6612.8
2016-May-16 19:22N 36°32' E 141°00'1113.7
2016-May-16 18:32N 36°43' E 141°02'  
Track history (hours):
 
Tides and Currents Weather Stations Pressure Air Temp Water Temp Dewpoint Dewpoint Depression Visibility Wind Speed Wind Dir Waves Ship Positions

Hiyodori

Last reported at 2016-May-26 04:26 UTC. Time now 2016-May-28 00:08 UTC.
Position N 35°00' E 139°29'.

Length 88 m; draft 3.6 m.

Type: Cargo ship. MMSI: 431000132.

Date/timePositionNaut miles runAvg speedWind from/ knotsBaromVisibWave heightAir tempDewpointWater temp
2016-May-26 04:26N 35°00' E 139°29'1010.9
2016-May-26 03:32N 35°06' E 139°39'1110.9
2016-May-26 02:33N 35°14' E 139°46'1111.1
2016-May-26 01:33N 35°25' E 139°44'10 9.7
2016-May-26 00:33N 35°34' E 139°49'3 2.6
2016-May-25 23:32N 35°36' E 139°46'3 2.8
2016-May-25 22:33N 35°34' E 139°49'9 8.7
2016-May-25 21:33N 35°26' E 139°47'3 2.5
2016-May-25 20:31N 35°24' E 139°44'0 0.0
2016-May-25 19:31N 35°24' E 139°44'0 0.0
2016-May-25 18:31N 35°24' E 139°44'0 0.0
2016-May-25 17:31N 35°24' E 139°44'0 0.0
2016-May-25 16:31N 35°24' E 139°44'0 0.0
2016-May-25 15:31N 35°24' E 139°44'0 0.0
2016-May-25 14:31N 35°24' E 139°44'0 0.0
2016-May-25 13:31N 35°24' E 139°44'0 0.0
2016-May-25 12:31N 35°24' E 139°44'0 0.0
2016-May-25 11:31N 35°24' E 139°44'0 0.0
2016-May-25 10:31N 35°24' E 139°44'0 0.0
2016-May-25 09:31N 35°24' E 139°44'0 0.0
2016-May-25 08:31N 35°24' E 139°44'0 0.0
2016-May-25 07:31N 35°24' E 139°44'0 0.0
2016-May-25 06:31N 35°24' E 139°44'0 0.0
2016-May-25 05:31N 35°24' E 139°44'0 0.0
2016-May-25 04:31N 35°24' E 139°44'0 0.0
2016-May-25 03:31N 35°24' E 139°44'0 0.0
2016-May-25 02:31N 35°24' E 139°44'0 0.0
2016-May-25 01:31N 35°24' E 139°44'4 3.8
2016-May-25 00:34N 35°26' E 139°41'0 0.0
2016-May-24 23:31N 35°26' E 139°41'0 0.2
2016-May-24 22:33N 35°26' E 139°41'0 0.0
2016-May-24 21:33N 35°26' E 139°41'0 0.0
2016-May-24 20:33N 35°26' E 139°41'0 0.0
2016-May-24 19:33N 35°26' E 139°41'0 0.0
2016-May-24 18:33N 35°26' E 139°41'0 0.0
2016-May-24 17:33N 35°26' E 139°41'0 0.0
2016-May-24 16:33N 35°26' E 139°41'1 0.6
2016-May-24 15:33N 35°27' E 139°41'4 3.9
2016-May-24 14:32N 35°24' E 139°45'0 0.0
2016-May-24 13:29N 35°24' E 139°44'0 0.1
2016-May-24 12:32N 35°24' E 139°45'0 0.0
2016-May-24 11:32N 35°24' E 139°45'0 0.0
2016-May-24 10:32N 35°24' E 139°45'0 0.0
2016-May-24 09:32N 35°24' E 139°45'0 0.0
2016-May-24 08:32N 35°24' E 139°45'9 9.5
2016-May-24 07:33N 35°15' E 139°47'1313.1
2016-May-24 06:33N 35°02' E 139°44'43 8.5
2016-May-24 01:33N 35°13' E 140°35'1010.1
2016-May-24 00:32N 35°20' E 140°44'1111.3
2016-May-23 23:33N 35°30' E 140°49'1111.3
2016-May-23 22:33N 35°40' E 140°55'1111.2
2016-May-23 21:33N 35°51' E 140°54'1212.1
2016-May-23 20:33N 36°03' E 140°51'1312.3
2016-May-23 19:31N 36°16' E 140°48'1611.6
2016-May-23 18:11N 36°31' E 140°51'711.7
2016-May-23 17:33N 36°38' E 140°55'2711.9
2016-May-23 15:18N 37°03' E 141°07'19 0.8
2016-May-22 16:04N 36°45' E 141°01'611.8
2016-May-22 15:33N 36°39' E 140°60'1211.8
2016-May-22 14:33N 36°27' E 140°58'1211.8
2016-May-22 13:33N 36°15' E 140°57'1211.7
2016-May-22 12:34N 36°04' E 140°57'1111.3
2016-May-22 11:34N 35°53' E 140°56'1111.3
2016-May-22 10:33N 35°41' E 140°55'1110.4
2016-May-22 09:32N 35°32' E 140°48'1010.6
2016-May-22 08:33N 35°25' E 140°39'1111.0
2016-May-22 07:34N 35°16' E 140°32'1311.2
2016-May-22 06:22N 35°06' E 140°21'810.4
2016-May-22 05:33N 35°01' E 140°12'1110.8
2016-May-22 04:33N 34°55' E 140°01'1110.6
2016-May-22 03:33N 34°52' E 139°49'1211.7
2016-May-22 02:34N 35°02' E 139°44'1413.5
2016-May-22 01:33N 35°16' E 139°46'9 9.2
2016-May-22 00:33N 35°24' E 139°41'0 0.0
2016-May-21 23:33N 35°24' E 139°41'3 2.9
2016-May-21 22:33N 35°23' E 139°44'0 0.0
2016-May-21 21:33N 35°23' E 139°44'0 0.0
2016-May-21 20:33N 35°23' E 139°44'0 0.0
2016-May-21 19:33N 35°23' E 139°44'0 0.0
2016-May-21 18:33N 35°23' E 139°44'0 0.0
2016-May-21 17:33N 35°23' E 139°44'0 0.0
2016-May-21 16:33N 35°23' E 139°44'0 0.0
2016-May-21 15:33N 35°23' E 139°44'0 0.0
2016-May-21 14:33N 35°23' E 139°44'0 0.0
2016-May-21 13:33N 35°23' E 139°44'0 0.0
2016-May-21 12:33N 35°23' E 139°44'0 0.0
2016-May-21 11:33N 35°23' E 139°44'0 0.0
2016-May-21 10:33N 35°23' E 139°44'0 0.0
2016-May-21 09:33N 35°23' E 139°44'0 0.0
2016-May-21 08:33N 35°23' E 139°44'0 0.1
2016-May-21 07:33N 35°23' E 139°44'3 2.5
2016-May-21 06:33N 35°20' E 139°43'1211.5
2016-May-21 05:33N 35°09' E 139°46'1212.2
2016-May-21 04:33N 34°57' E 139°44'5410.7
2016-May-20 23:33N 35°25' E 140°40'2612.8
2016-May-20 21:33N 35°48' E 140°55'45 1.7
2016-May-19 19:28N 36°32' E 140°60'6011.2
2016-May-19 14:08N 35°33' E 140°47'711.5
2016-May-19 13:32N 35°28' E 140°42'1111.1
2016-May-19 12:32N 35°19' E 140°34'1010.3
2016-May-19 11:33N 35°11' E 140°27'1110.9
2016-May-19 10:33N 35°04' E 140°16'1111.5
2016-May-19 09:33N 34°57' E 140°05'1210.2
2016-May-19 08:25N 34°52' E 139°52'1110.0
2016-May-19 07:21N 34°60' E 139°43'1113.6
2016-May-19 06:33N 35°10' E 139°46'1212.3
2016-May-19 05:33N 35°22' E 139°42'2 1.8
2016-May-19 04:32N 35°24' E 139°41'1 0.9
2016-May-19 03:33N 35°23' E 139°41'2 2.0
2016-May-19 02:28N 35°22' E 139°44'0 0.0
2016-May-19 01:31N 35°22' E 139°44'0 0.0
2016-May-19 00:31N 35°22' E 139°44'6 5.7
2016-May-18 23:34N 35°27' E 139°41'2 1.9
2016-May-18 22:32N 35°29' E 139°39'0 0.0
2016-May-18 21:32N 35°29' E 139°39'0 0.0
2016-May-18 20:32N 35°29' E 139°39'0 0.0
2016-May-18 19:32N 35°29' E 139°39'0 0.0
2016-May-18 18:32N 35°29' E 139°39'0 0.0
2016-May-18 17:32N 35°29' E 139°39'0 0.0
2016-May-18 16:32N 35°29' E 139°39'0 0.0
2016-May-18 15:32N 35°29' E 139°39'0 0.0
2016-May-18 14:29N 35°29' E 139°39'0 0.0
2016-May-18 13:32N 35°29' E 139°39'0 0.0
2016-May-18 12:32N 35°29' E 139°39'0 0.0
2016-May-18 11:32N 35°29' E 139°39'0 0.0
2016-May-18 10:32N 35°29' E 139°39'0 0.0
2016-May-18 09:32N 35°29' E 139°39'0 0.0
2016-May-18 08:32N 35°29' E 139°39'0 0.0
2016-May-18 07:32N 35°29' E 139°39'0 0.0
2016-May-18 06:32N 35°29' E 139°39'0 0.0
2016-May-18 05:32N 35°29' E 139°39'0 0.0
2016-May-18 04:32N 35°29' E 139°39'0 0.0
2016-May-18 03:32N 35°29' E 139°39'0 0.0
2016-May-18 02:32N 35°29' E 139°39'0 0.0
2016-May-18 01:32N 35°29' E 139°39'0 0.0
2016-May-18 00:32N 35°29' E 139°39'0 0.0
2016-May-17 23:32N 35°29' E 139°39'7 6.8
2016-May-17 22:34N 35°24' E 139°45'0 0.1
2016-May-17 21:32N 35°24' E 139°45'0 0.0
2016-May-17 20:32N 35°24' E 139°45'0 0.0
2016-May-17 19:32N 35°24' E 139°45'0 0.0
2016-May-17 18:29N 35°24' E 139°45'0 0.0
2016-May-17 17:32N 35°24' E 139°45'0 0.0
2016-May-17 16:32N 35°24' E 139°45'0 0.0
2016-May-17 15:32N 35°24' E 139°45'0 0.0
2016-May-17 14:32N 35°24' E 139°45'0 0.0
2016-May-17 13:33N 35°24' E 139°45'0 0.0
2016-May-17 12:33N 35°24' E 139°45'1 0.9
2016-May-17 11:33N 35°24' E 139°44'2 2.3
2016-May-17 10:31N 35°24' E 139°41'1 0.6
2016-May-17 09:34N 35°24' E 139°40'6 6.2
2016-May-17 08:34N 35°18' E 139°44'1110.6
2016-May-17 07:33N 35°08' E 139°46'17 8.2
2016-May-17 05:28N 34°53' E 139°57'4210.2
2016-May-17 01:22N 35°21' E 140°36'810.1
2016-May-17 00:33N 35°27' E 140°42'6612.8
2016-May-16 19:22N 36°32' E 141°00'1113.7
2016-May-16 18:32N 36°43' E 141°02'  

Dump ship's entire track history